createdAt,value
2022-11-07T00:01:21.433Z,11.49
2022-11-07T00:03:48.323Z,11.74
2022-11-07T00:06:16.491Z,11.19
2022-11-07T00:08:43.234Z,11.63
2022-11-07T00:11:10.341Z,11.72
2022-11-07T00:13:37.722Z,12.03
2022-11-07T00:16:05.992Z,12.03
2022-11-07T00:18:32.921Z,11.47
2022-11-07T00:21:03.251Z,12.05
2022-11-07T00:23:30.062Z,12.32
2022-11-07T00:26:08.742Z,12.43
2022-11-07T00:28:39.580Z,12.62
2022-11-07T00:31:07.245Z,12.07
2022-11-07T00:33:34.442Z,12.26
2022-11-07T00:36:02.662Z,12.47
2022-11-07T00:38:31.235Z,12.20
2022-11-07T00:41:02.447Z,12.19
2022-11-07T00:43:29.572Z,12.37
2022-11-07T00:45:56.421Z,12.68
2022-11-07T00:48:25.150Z,12.76
2022-11-07T00:50:51.944Z,12.98
2022-11-07T00:53:20.813Z,13.10
2022-11-07T00:55:47.765Z,13.13
2022-11-07T00:58:14.963Z,13.20
2022-11-07T01:00:42.144Z,13.17
2022-11-07T01:03:30.512Z,13.23
2022-11-07T01:06:01.471Z,13.18
2022-11-07T01:08:29.896Z,12.85
2022-11-07T01:10:56.686Z,13.30
2022-11-07T01:13:23.751Z,13.12
2022-11-07T01:15:50.831Z,12.82
2022-11-07T01:18:17.851Z,12.81
2022-11-07T01:20:45.004Z,12.99
2022-11-07T01:23:11.777Z,13.06
2022-11-07T01:25:39.321Z,12.92
2022-11-07T01:28:07.691Z,13.09
2022-11-07T01:30:37.873Z,12.66
2022-11-07T01:33:04.832Z,12.69
2022-11-07T01:35:32.815Z,12.91
2022-11-07T01:38:00.133Z,12.56
2022-11-07T01:40:27.643Z,11.13
2022-11-07T01:42:54.874Z,11.68
2022-11-07T01:45:31.254Z,11.58
2022-11-07T01:48:01.693Z,11.69
2022-11-07T01:50:28.771Z,11.10
2022-11-07T01:52:56.973Z,11.17
2022-11-07T01:55:26.903Z,11.06
2022-11-07T01:57:59.575Z,11.60
2022-11-07T02:00:33.753Z,10.85
2022-11-07T02:03:07.001Z,10.86
2022-11-07T02:05:53.973Z,11.01
2022-11-07T02:08:21.791Z,10.20
2022-11-07T02:10:48.902Z,10.36
2022-11-07T02:13:20.712Z,10.17
2022-11-07T02:15:47.483Z,10.73
2022-11-07T02:18:14.430Z,10.67
2022-11-07T02:20:41.371Z,10.51
2022-11-07T02:23:19.532Z,10.95
2022-11-07T02:25:46.389Z,10.66
2022-11-07T02:28:15.203Z,10.30
2022-11-07T02:30:41.960Z,11.06
2022-11-07T02:33:21.902Z,11.25
2022-11-07T02:35:50.371Z,11.27
2022-11-07T02:38:19.912Z,10.69
2022-11-07T02:40:50.042Z,10.68
2022-11-07T02:43:18.628Z,11.09
2022-11-07T02:45:46.792Z,11.23
2022-11-07T02:48:14.101Z,11.39
2022-11-07T02:50:42.161Z,11.47
2022-11-07T02:53:08.993Z,11.39
2022-11-07T02:55:35.763Z,11.37
2022-11-07T02:58:02.660Z,11.53
2022-11-07T03:00:29.462Z,11.54
2022-11-07T03:02:57.309Z,11.45
2022-11-07T03:05:24.192Z,11.49
2022-11-07T03:07:51.029Z,11.08
2022-11-07T03:10:18.342Z,11.24
2022-11-07T03:12:45.851Z,11.18
2022-11-07T03:15:13.650Z,11.23
2022-11-07T03:17:43.922Z,11.34
2022-11-07T03:20:20.724Z,11.30
2022-11-07T03:22:51.391Z,11.07
2022-11-07T03:25:20.803Z,10.84
2022-11-07T03:27:54.776Z,11.00
2022-11-07T03:30:24.904Z,11.05
2022-11-07T03:32:57.602Z,10.93
2022-11-07T03:35:32.579Z,10.95
2022-11-07T03:41:08.604Z,9.71
2022-11-07T03:43:35.462Z,10.04
2022-11-07T03:46:02.751Z,9.62
2022-11-07T03:48:29.621Z,10.07
2022-11-07T03:50:56.791Z,10.37
2022-11-07T03:53:25.830Z,10.43
2022-11-07T03:55:54.393Z,10.40
2022-11-07T03:58:21.340Z,10.61
2022-11-07T04:00:48.318Z,10.54
2022-11-07T04:03:15.134Z,10.53
2022-11-07T04:05:42.102Z,10.64
2022-11-07T04:08:08.892Z,10.74
2022-11-07T04:10:36.062Z,10.79
2022-11-07T04:13:21.523Z,9.66
2022-11-07T04:16:08.142Z,8.74
2022-11-07T04:18:35.578Z,8.20
2022-11-07T04:21:07.183Z,9.67
2022-11-07T04:23:34.921Z,9.69
2022-11-07T04:26:20.312Z,9.97
2022-11-07T04:28:50.211Z,10.16
2022-11-07T04:31:17.495Z,10.12
2022-11-07T04:33:44.199Z,10.03
2022-11-07T04:36:10.933Z,10.34
2022-11-07T04:38:37.802Z,10.45
2022-11-07T04:41:04.842Z,10.43
2022-11-07T04:43:32.032Z,10.40
2022-11-07T04:45:58.803Z,10.46
2022-11-07T04:48:25.672Z,10.41
2022-11-07T04:50:52.670Z,10.48
2022-11-07T04:53:19.445Z,10.60
2022-11-07T04:55:47.052Z,10.60
2022-11-07T04:58:13.758Z,10.58
2022-11-07T05:00:40.534Z,10.66
2022-11-07T05:03:07.547Z,10.67
2022-11-07T05:05:34.342Z,10.64
2022-11-07T05:08:01.092Z,10.67
2022-11-07T05:10:29.026Z,10.56
2022-11-07T05:12:56.847Z,10.41
2022-11-07T05:15:23.651Z,10.42
2022-11-07T05:17:50.479Z,10.65
2022-11-07T05:20:27.573Z,10.15
2022-11-07T05:23:13.445Z,10.27
2022-11-07T05:25:40.631Z,10.35
2022-11-07T05:28:07.637Z,10.44
2022-11-07T05:30:34.501Z,10.45
2022-11-07T05:33:01.291Z,10.43
2022-11-07T05:35:28.290Z,10.27
2022-11-07T05:37:55.104Z,10.19
2022-11-07T05:40:22.042Z,10.19
2022-11-07T05:42:49.553Z,9.65
2022-11-07T05:45:16.621Z,10.00
2022-11-07T05:47:43.402Z,10.19
2022-11-07T05:50:10.291Z,10.21
2022-11-07T05:52:37.397Z,10.26
2022-11-07T05:55:04.979Z,10.22
2022-11-07T05:57:31.743Z,10.34
2022-11-07T05:59:58.617Z,10.38
2022-11-07T06:02:25.381Z,10.26
2022-11-07T06:04:52.262Z,10.51
2022-11-07T06:07:19.075Z,10.28
2022-11-07T06:09:45.811Z,10.44
2022-11-07T06:12:12.812Z,10.83
2022-11-07T06:14:39.980Z,10.79
2022-11-07T06:17:07.670Z,10.45
2022-11-07T06:19:34.655Z,10.56
2022-11-07T06:22:01.943Z,10.57
2022-11-07T06:24:31.594Z,10.60
2022-11-07T06:26:59.461Z,10.56
2022-11-07T06:29:26.202Z,10.83
2022-11-07T06:31:55.433Z,10.82
2022-11-07T06:34:23.486Z,10.82
2022-11-07T06:37:31.903Z,10.70
2022-11-07T06:40:00.053Z,11.04
2022-11-07T06:42:33.687Z,11.05
2022-11-07T06:45:05.332Z,10.88
2022-11-07T06:47:50.509Z,10.90
2022-11-07T06:50:19.136Z,11.22
2022-11-07T06:53:38.287Z,11.53
2022-11-07T07:22:40.724Z,11.68
2022-11-07T07:35:29.250Z,11.39
2022-11-07T07:38:33.597Z,11.26
2022-11-07T07:42:59.931Z,11.24
2022-11-07T07:44:45.675Z,10.98
2022-11-07T07:54:00.969Z,11.40
2022-11-07T07:56:37.773Z,11.16
2022-11-07T07:59:25.635Z,10.80
2022-11-07T08:01:56.840Z,11.54
2022-11-07T08:04:30.165Z,11.75
2022-11-07T08:07:02.044Z,12.03
2022-11-07T08:09:31.544Z,12.26
2022-11-07T08:11:59.560Z,12.41
2022-11-07T08:14:28.650Z,12.42
2022-11-07T08:16:55.754Z,12.89
2022-11-07T08:19:27.828Z,12.80
2022-11-07T08:22:09.469Z,12.93
2022-11-07T08:24:51.004Z,12.88
2022-11-07T08:27:23.751Z,12.47
2022-11-07T08:29:53.365Z,11.60
2022-11-07T08:32:20.363Z,11.63
2022-11-07T08:34:59.313Z,12.37
2022-11-07T08:40:19.532Z,12.54
2022-11-07T08:42:49.589Z,12.49
2022-11-07T08:45:22.273Z,12.60
2022-11-07T08:47:52.254Z,12.54
2022-11-07T08:50:22.355Z,12.17
2022-11-07T08:52:49.442Z,12.33
2022-11-07T08:55:27.814Z,12.89
2022-11-07T08:57:58.571Z,12.75
2022-11-07T09:00:27.732Z,13.27
2022-11-07T09:06:18.815Z,13.58
2022-11-07T09:08:46.043Z,13.61
2022-11-07T09:11:16.071Z,13.93
2022-11-07T09:13:43.139Z,14.16
2022-11-07T09:16:22.424Z,14.18
2022-11-07T09:18:53.012Z,14.07
2022-11-07T09:21:24.266Z,13.97
2022-11-07T09:24:09.042Z,14.58
2022-11-07T09:30:10.925Z,14.91
2022-11-07T10:16:43.353Z,16.40
2022-11-07T10:22:57.657Z,16.20
2022-11-07T10:25:43.972Z,15.50
2022-11-07T10:28:26.721Z,15.97
2022-11-07T10:31:22.705Z,15.49
2022-11-07T10:34:33.182Z,16.25
2022-11-07T10:37:22.661Z,15.58
2022-11-07T10:46:55.552Z,16.08
2022-11-07T10:49:45.762Z,16.25
2022-11-07T10:52:36.763Z,16.87
2022-11-07T10:55:29.466Z,16.81
2022-11-07T10:58:50.553Z,16.69
2022-11-07T11:01:24.994Z,17.05
2022-11-07T11:04:04.672Z,17.06
2022-11-07T11:06:31.984Z,17.56
2022-11-07T11:09:02.335Z,18.00
2022-11-07T11:11:43.782Z,17.99
2022-11-07T11:14:14.895Z,17.69
2022-11-07T11:16:49.239Z,17.48
2022-11-07T11:19:27.599Z,17.92
2022-11-07T11:26:01.927Z,18.10
2022-11-07T11:28:33.585Z,18.43
2022-11-07T11:31:04.231Z,18.48
2022-11-07T11:33:58.563Z,18.68
2022-11-07T11:39:58.634Z,18.83
2022-11-07T11:42:54.444Z,18.99
2022-11-07T11:49:33.784Z,18.91
2022-11-07T11:52:30.478Z,18.60
2022-11-07T11:55:57.127Z,18.43
2022-11-07T11:58:32.227Z,18.84
2022-11-07T12:01:29.466Z,18.86
2022-11-07T12:04:15.216Z,19.24
2022-11-07T12:06:45.631Z,19.62
2022-11-07T12:09:17.132Z,19.47
2022-11-07T12:11:48.297Z,19.69
2022-11-07T12:14:33.766Z,19.12
2022-11-07T12:17:06.742Z,18.41
2022-11-07T12:19:36.999Z,18.67
2022-11-07T12:22:06.983Z,19.24
2022-11-07T12:24:45.965Z,19.36
2022-11-07T12:52:47.119Z,19.59
2022-11-07T13:49:44.204Z,20.25
2022-11-07T13:53:42.186Z,20.35
2022-11-07T14:00:28.357Z,20.76
2022-11-07T14:27:10.354Z,20.20
2022-11-07T14:28:29.024Z,20.48
2022-11-07T14:31:27.590Z,20.41
2022-11-07T14:34:04.864Z,20.30
2022-11-07T14:40:16.254Z,20.35
2022-11-07T14:46:21.097Z,20.03
2022-11-07T14:49:16.163Z,19.87
2022-11-07T15:42:23.664Z,18.01
2022-11-07T15:48:23.842Z,17.52
2022-11-07T15:50:50.681Z,17.42
2022-11-07T15:53:23.344Z,17.45
2022-11-07T15:55:54.172Z,17.11
2022-11-07T15:58:24.823Z,16.61
2022-11-07T16:00:53.682Z,16.53
2022-11-07T16:03:21.764Z,16.61
2022-11-07T16:05:50.243Z,16.34
2022-11-07T16:08:19.526Z,16.36
2022-11-07T16:10:48.814Z,16.23
2022-11-07T16:13:15.823Z,15.94
2022-11-07T16:15:45.802Z,15.85
2022-11-07T16:18:19.788Z,15.69
2022-11-07T16:20:47.518Z,15.72
2022-11-07T16:23:14.817Z,15.72
2022-11-07T16:25:42.924Z,15.60
2022-11-07T16:28:22.431Z,15.59
2022-11-07T16:30:49.603Z,15.60
2022-11-07T16:33:16.351Z,15.42
2022-11-07T16:35:43.395Z,15.39
2022-11-07T16:38:14.322Z,15.31
2022-11-07T16:40:41.486Z,15.22
2022-11-07T16:43:08.537Z,15.18
2022-11-07T16:45:35.923Z,15.05
2022-11-07T16:48:03.555Z,15.05
2022-11-07T16:50:30.287Z,14.93
2022-11-07T16:52:57.514Z,14.94
2022-11-07T16:55:24.315Z,14.90
2022-11-07T16:57:51.054Z,14.68
2022-11-07T17:00:22.702Z,14.26
2022-11-07T17:02:49.879Z,14.13
2022-11-07T17:05:17.015Z,13.12
2022-11-07T17:07:43.774Z,13.75
2022-11-07T17:30:41.592Z,13.45
2022-11-07T17:33:09.131Z,13.58
2022-11-07T17:35:36.410Z,13.42
2022-11-07T17:58:40.124Z,12.63
2022-11-07T18:01:28.447Z,12.58
2022-11-07T18:04:05.442Z,12.65
2022-11-07T18:06:34.691Z,12.34
2022-11-07T18:09:02.257Z,11.92
2022-11-07T18:11:29.856Z,12.13
2022-11-07T18:13:58.358Z,11.82
2022-11-07T18:16:32.133Z,11.66
2022-11-07T18:19:00.302Z,11.70
2022-11-07T18:21:38.220Z,11.83
2022-11-07T18:24:06.164Z,11.93
2022-11-07T18:26:33.786Z,11.91
2022-11-07T18:29:02.706Z,11.94
2022-11-07T18:31:29.596Z,12.05
2022-11-07T18:34:01.788Z,11.93
2022-11-07T18:36:30.890Z,12.01
2022-11-07T18:39:07.348Z,11.95
2022-11-07T18:41:34.222Z,11.86
2022-11-07T18:44:04.703Z,11.81
2022-11-07T18:46:32.013Z,11.77
2022-11-07T18:49:02.313Z,11.79
2022-11-07T18:51:29.115Z,11.78
2022-11-07T18:53:56.152Z,11.73
2022-11-07T18:56:22.984Z,11.66
2022-11-07T18:58:49.794Z,11.77
2022-11-07T19:01:18.901Z,11.68
2022-11-07T19:03:46.590Z,11.60
2022-11-07T19:06:15.315Z,11.70
2022-11-07T19:08:42.965Z,11.50
2022-11-07T19:11:11.272Z,11.52
2022-11-07T19:13:39.403Z,11.51
2022-11-07T19:16:10.079Z,11.46
2022-11-07T19:18:37.204Z,11.17
2022-11-07T19:21:04.462Z,11.25
2022-11-07T19:23:31.543Z,11.06
2022-11-07T19:25:58.751Z,11.16
2022-11-07T19:28:25.653Z,11.16
2022-11-07T19:30:52.411Z,11.25
2022-11-07T19:33:20.654Z,11.05
2022-11-07T19:35:47.772Z,11.16
2022-11-07T19:38:14.866Z,11.06
2022-11-07T19:40:41.989Z,11.00
2022-11-07T19:43:11.614Z,10.93
2022-11-07T19:45:41.766Z,10.83
2022-11-07T19:48:08.814Z,10.91
2022-11-07T19:50:37.889Z,10.82
2022-11-07T19:53:05.072Z,10.77
2022-11-07T19:55:31.882Z,10.68
2022-11-07T19:57:59.014Z,10.69
2022-11-07T20:00:26.574Z,10.55
2022-11-07T20:02:54.012Z,10.65
2022-11-07T20:05:24.444Z,10.73
2022-11-07T20:07:55.402Z,10.57
2022-11-07T20:10:24.008Z,10.49
2022-11-07T20:12:51.058Z,10.21
2022-11-07T20:15:17.824Z,10.22
2022-11-07T20:17:44.994Z,9.95
2022-11-07T20:20:13.733Z,10.15
2022-11-07T20:22:46.423Z,10.33
2022-11-07T20:25:13.665Z,10.26
2022-11-07T20:27:40.477Z,9.50
2022-11-07T20:30:07.765Z,9.81
2022-11-07T20:32:34.695Z,9.95
2022-11-07T20:35:01.514Z,9.86
2022-11-07T20:37:28.297Z,9.84
2022-11-07T20:39:55.035Z,9.72
2022-11-07T20:42:21.822Z,9.80
2022-11-07T20:44:49.823Z,9.78
2022-11-07T20:47:17.231Z,9.85
2022-11-07T20:49:44.123Z,9.76
2022-11-07T20:52:10.994Z,9.99
2022-11-07T20:54:38.065Z,9.70
2022-11-07T20:57:04.876Z,9.62
2022-11-07T20:59:31.963Z,9.72
2022-11-07T21:02:03.156Z,9.76
2022-11-07T21:04:49.993Z,9.74
2022-11-07T21:07:20.051Z,9.72
2022-11-07T21:09:46.984Z,9.57
2022-11-07T21:12:13.844Z,9.49
2022-11-07T21:14:42.404Z,9.54
2022-11-07T21:17:10.025Z,9.53
2022-11-07T21:19:37.202Z,9.60
2022-11-07T21:22:04.461Z,9.59
2022-11-07T21:24:31.863Z,9.50
2022-11-07T21:26:58.936Z,9.27
2022-11-07T21:29:29.567Z,9.42
2022-11-07T21:31:57.233Z,9.39
2022-11-07T21:34:24.410Z,8.92
2022-11-07T21:36:51.222Z,8.53
2022-11-07T21:39:18.209Z,8.91
2022-11-07T21:41:44.953Z,8.84
2022-11-07T21:44:14.535Z,8.77
2022-11-07T21:46:41.319Z,8.71
2022-11-07T21:49:08.178Z,8.63
2022-11-07T21:51:35.426Z,8.81
2022-11-07T21:54:04.004Z,8.74
2022-11-07T21:56:32.185Z,8.87
2022-11-07T21:59:00.513Z,8.88
2022-11-07T22:01:28.206Z,8.85
2022-11-07T22:04:11.827Z,8.86
2022-11-07T22:06:40.637Z,8.68
2022-11-07T22:09:08.273Z,8.61
2022-11-07T22:11:35.152Z,8.64
2022-11-07T22:14:01.993Z,8.61
2022-11-07T22:16:29.086Z,8.72
2022-11-07T22:18:55.942Z,8.76
2022-11-07T22:21:23.281Z,8.89
2022-11-07T22:23:50.465Z,8.92
2022-11-07T22:26:19.137Z,8.85
2022-11-07T22:28:46.638Z,8.85
2022-11-07T22:31:15.356Z,8.83
2022-11-07T22:33:42.166Z,8.40
2022-11-07T22:36:09.316Z,8.60
2022-11-07T22:38:36.614Z,8.66
2022-11-07T22:41:06.173Z,8.69
2022-11-07T22:43:33.450Z,8.81
2022-11-07T22:46:04.343Z,8.52
2022-11-07T22:48:31.193Z,8.36
2022-11-07T22:51:18.015Z,8.40
2022-11-07T22:53:45.162Z,8.20
2022-11-07T22:56:13.602Z,8.12
2022-11-07T22:58:40.853Z,8.28
2022-11-07T23:01:13.613Z,8.28
2022-11-07T23:03:40.466Z,8.35
2022-11-07T23:06:07.455Z,8.40
2022-11-07T23:08:34.263Z,8.43
2022-11-07T23:11:45.186Z,8.36
2022-11-07T23:13:50.383Z,8.41
2022-11-07T23:16:21.632Z,8.42
2022-11-07T23:18:48.503Z,8.49
2022-11-07T23:21:15.718Z,7.87
2022-11-07T23:56:13.036Z,8.00
2022-11-07T23:58:58.447Z,7.64
